createdAt,value
2018-05-09T00:00:32.575Z,21.38
2018-05-09T00:02:34.090Z,21.34
2018-05-09T00:04:35.554Z,21.27
2018-05-09T00:06:37.312Z,21.34
2018-05-09T00:08:39.021Z,21.29
2018-05-09T00:10:40.524Z,21.32
2018-05-09T00:12:42.100Z,21.34
2018-05-09T00:14:43.627Z,21.21
2018-05-09T00:16:45.188Z,21.30
2018-05-09T00:18:46.638Z,21.23
2018-05-09T00:20:48.179Z,21.20
2018-05-09T00:22:49.703Z,21.19
2018-05-09T00:24:51.420Z,21.06
2018-05-09T00:26:53.088Z,21.14
2018-05-09T00:28:54.535Z,21.02
2018-05-09T00:30:55.961Z,21.05
2018-05-09T00:32:57.470Z,21.02
2018-05-09T00:34:58.936Z,20.96
2018-05-09T00:37:00.445Z,20.95
2018-05-09T00:39:01.908Z,20.98
2018-05-09T00:41:03.329Z,20.87
2018-05-09T00:43:04.756Z,20.93
2018-05-09T00:45:06.184Z,20.90
2018-05-09T00:47:07.610Z,20.86
2018-05-09T00:49:09.199Z,20.81
2018-05-09T00:51:11.054Z,20.83
2018-05-09T00:53:12.992Z,20.80
2018-05-09T00:55:14.672Z,20.81
2018-05-09T00:57:16.361Z,20.80
2018-05-09T00:59:18.078Z,20.72
2018-05-09T01:01:19.840Z,20.72
2018-05-09T01:03:21.645Z,20.65
2018-05-09T01:05:23.349Z,20.69
2018-05-09T01:07:25.205Z,20.65
2018-05-09T01:09:26.887Z,20.69
2018-05-09T01:11:28.713Z,20.66
2018-05-09T01:13:30.370Z,20.69
2018-05-09T01:15:31.856Z,20.68
2018-05-09T01:17:33.358Z,20.62
2018-05-09T01:19:34.783Z,20.56
2018-05-09T01:21:36.209Z,20.51
2018-05-09T01:23:37.760Z,20.47
2018-05-09T01:25:39.367Z,20.43
2018-05-09T01:27:41.053Z,20.46
2018-05-09T01:29:42.846Z,20.39
2018-05-09T01:31:44.553Z,20.33
2018-05-09T01:33:46.521Z,20.41
2018-05-09T01:35:48.344Z,20.39
2018-05-09T01:37:50.251Z,20.33
2018-05-09T01:39:52.142Z,20.24
2018-05-09T01:41:53.773Z,20.21
2018-05-09T01:43:55.494Z,20.03
2018-05-09T01:45:57.149Z,20.00
2018-05-09T01:47:59.021Z,20.02
2018-05-09T01:50:00.774Z,19.97
2018-05-09T01:52:02.259Z,19.86
2018-05-09T01:54:03.819Z,19.93
2018-05-09T01:56:05.300Z,19.88
2018-05-09T01:58:06.769Z,19.86
2018-05-09T02:00:08.435Z,19.79
2018-05-09T02:02:10.371Z,19.72
2018-05-09T02:04:12.152Z,19.70
2018-05-09T02:06:13.757Z,19.54
2018-05-09T02:08:15.307Z,19.58
2018-05-09T02:10:16.975Z,19.58
2018-05-09T02:12:18.674Z,19.61
2018-05-09T02:14:20.401Z,19.57
2018-05-09T02:16:22.096Z,19.43
2018-05-09T02:18:23.852Z,19.40
2018-05-09T02:20:25.552Z,19.40
2018-05-09T02:22:27.531Z,19.32
2018-05-09T02:24:29.147Z,19.33
2018-05-09T02:26:30.659Z,19.21
2018-05-09T02:28:32.206Z,19.23
2018-05-09T02:30:33.870Z,19.24
2018-05-09T02:32:35.694Z,19.20
2018-05-09T02:34:37.319Z,19.25
2018-05-09T02:36:38.793Z,19.13
2018-05-09T02:38:40.316Z,19.18
2018-05-09T02:40:41.895Z,19.11
2018-05-09T02:42:43.833Z,19.06
2018-05-09T02:44:45.536Z,19.10
2018-05-09T02:46:47.093Z,19.15
2018-05-09T02:48:48.681Z,19.20
2018-05-09T02:50:50.424Z,19.06
2018-05-09T02:52:52.096Z,19.05
2018-05-09T02:54:53.837Z,19.02
2018-05-09T02:56:55.392Z,19.08
2018-05-09T02:58:56.869Z,19.01
2018-05-09T03:00:58.338Z,18.99
2018-05-09T03:02:59.839Z,19.01
2018-05-09T03:05:01.328Z,18.94
2018-05-09T03:07:02.814Z,18.99
2018-05-09T03:09:04.347Z,18.99
2018-05-09T03:11:05.820Z,19.02
2018-05-09T03:13:07.289Z,19.06
2018-05-09T03:15:08.709Z,18.99
2018-05-09T03:17:10.129Z,19.06
2018-05-09T03:19:11.643Z,18.97
2018-05-09T03:21:13.075Z,18.99
2018-05-09T03:23:14.496Z,18.94
2018-05-09T03:25:15.931Z,18.97
2018-05-09T03:27:17.394Z,18.91
2018-05-09T03:29:19.057Z,18.87
2018-05-09T03:31:20.600Z,18.91
2018-05-09T03:33:22.191Z,18.95
2018-05-09T03:35:23.726Z,18.83
2018-05-09T03:37:25.406Z,18.86
2018-05-09T03:39:26.932Z,18.91
2018-05-09T03:41:28.434Z,18.83
2018-05-09T03:43:30.195Z,18.86
2018-05-09T03:45:31.825Z,18.80
2018-05-09T03:47:33.375Z,18.82
2018-05-09T03:49:34.863Z,18.77
2018-05-09T03:51:36.381Z,18.83
2018-05-09T03:53:37.910Z,18.84
2018-05-09T03:55:39.407Z,18.83
2018-05-09T03:57:40.930Z,18.79
2018-05-09T03:59:42.486Z,18.77
2018-05-09T04:01:44.041Z,18.79
2018-05-09T04:03:45.555Z,18.67
2018-05-09T04:05:47.215Z,18.70
2018-05-09T04:07:49.092Z,18.67
2018-05-09T04:09:50.912Z,18.72
2018-05-09T04:11:52.431Z,18.65
2018-05-09T04:13:54.014Z,18.67
2018-05-09T04:15:55.568Z,18.64
2018-05-09T04:17:57.115Z,18.62
2018-05-09T04:19:58.660Z,18.64
2018-05-09T04:22:00.504Z,18.62
2018-05-09T04:24:02.340Z,18.59
2018-05-09T04:26:04.044Z,18.65
2018-05-09T04:28:05.902Z,18.58
2018-05-09T04:30:07.410Z,18.61
2018-05-09T04:32:08.937Z,18.62
2018-05-09T04:34:10.478Z,18.62
2018-05-09T04:36:12.158Z,18.50
2018-05-09T04:38:13.641Z,18.61
2018-05-09T04:40:15.173Z,18.65
2018-05-09T04:42:16.680Z,18.70
2018-05-09T04:44:18.767Z,18.67
2018-05-09T04:46:20.580Z,18.61
2018-05-09T04:48:22.337Z,18.64
2018-05-09T04:50:23.921Z,18.61
2018-05-09T04:52:25.501Z,18.57
2018-05-09T04:54:26.958Z,18.64
2018-05-09T04:56:28.489Z,18.61
2018-05-09T04:58:30.041Z,18.58
2018-05-09T05:00:31.679Z,18.67
2018-05-09T05:02:33.181Z,18.67
2018-05-09T05:04:34.724Z,18.65
2018-05-09T05:06:36.565Z,18.68
2018-05-09T05:08:38.126Z,18.72
2018-05-09T05:10:39.679Z,18.67
2018-05-09T05:12:41.181Z,18.73
2018-05-09T05:14:43.013Z,18.77
2018-05-09T05:16:44.532Z,18.79
2018-05-09T05:18:46.036Z,18.84
2018-05-09T05:20:47.553Z,18.90
2018-05-09T05:22:49.060Z,18.87
2018-05-09T05:24:50.593Z,18.94
2018-05-09T05:26:52.086Z,18.97
2018-05-09T05:28:53.588Z,18.87
2018-05-09T05:30:55.232Z,18.97
2018-05-09T05:32:56.917Z,18.92
2018-05-09T05:34:58.513Z,19.05
2018-05-09T05:37:00.293Z,19.32
2018-05-09T05:39:01.925Z,19.57
2018-05-09T05:41:03.889Z,19.65
2018-05-09T05:43:05.527Z,19.70
2018-05-09T05:45:07.119Z,19.78
2018-05-09T05:47:08.718Z,20.03
2018-05-09T05:49:10.367Z,20.50
2018-05-09T05:51:12.202Z,21.06
2018-05-09T05:53:13.954Z,21.66
2018-05-09T05:55:15.716Z,21.92
2018-05-09T05:57:17.408Z,21.90
2018-05-09T05:59:19.056Z,21.91
2018-05-09T06:01:20.594Z,22.01
2018-05-09T06:03:22.117Z,21.92
2018-05-09T06:05:23.686Z,21.76
2018-05-09T06:07:25.519Z,21.56
2018-05-09T06:09:27.076Z,21.54
2018-05-09T06:11:28.565Z,21.51
2018-05-09T06:13:30.046Z,21.64
2018-05-09T06:15:31.563Z,21.76
2018-05-09T06:17:33.106Z,21.98
2018-05-09T06:19:34.599Z,22.64
2018-05-09T06:21:36.083Z,23.98
2018-05-09T06:23:37.617Z,25.71
2018-05-09T06:25:39.120Z,27.23
2018-05-09T06:27:40.642Z,28.72
2018-05-09T06:29:42.159Z,29.93
2018-05-09T06:31:43.695Z,30.61
2018-05-09T06:33:45.220Z,30.84
2018-05-09T06:35:46.734Z,30.91
2018-05-09T06:37:48.336Z,31.15
2018-05-09T06:39:49.735Z,31.95
2018-05-09T06:41:51.248Z,32.54
2018-05-09T06:43:52.768Z,32.74
2018-05-09T06:45:54.238Z,33.19
2018-05-09T06:47:55.751Z,33.61
2018-05-09T06:49:57.259Z,34.01
2018-05-09T06:51:58.758Z,34.01
2018-05-09T06:54:00.281Z,33.61
2018-05-09T06:56:01.787Z,33.82
2018-05-09T06:58:03.277Z,33.90
2018-05-09T07:00:04.862Z,33.87
2018-05-09T07:02:06.279Z,33.33
2018-05-09T07:04:07.849Z,32.39
2018-05-09T07:06:09.441Z,31.35
2018-05-09T07:08:11.026Z,30.21
2018-05-09T07:10:12.744Z,29.52
2018-05-09T07:12:14.369Z,29.84
2018-05-09T07:14:15.915Z,30.68
2018-05-09T07:16:17.610Z,31.17
2018-05-09T07:18:19.213Z,31.60
2018-05-09T07:20:20.782Z,30.69
2018-05-09T07:22:22.510Z,29.96
2018-05-09T07:24:24.065Z,29.34
2018-05-09T07:27:06.727Z,28.75
2018-05-09T07:29:08.181Z,28.31
2018-05-09T07:31:09.684Z,28.10
2018-05-09T07:33:11.309Z,27.80
2018-05-09T07:35:12.779Z,27.29
2018-05-09T07:37:14.229Z,26.81
2018-05-09T07:39:15.735Z,26.65
2018-05-09T07:41:17.201Z,26.15
2018-05-09T07:43:18.760Z,25.74
2018-05-09T07:45:20.575Z,25.50
2018-05-09T07:48:02.088Z,25.17
2018-05-09T07:50:03.670Z,24.88
2018-05-09T07:52:05.114Z,24.77
2018-05-09T07:54:06.527Z,24.67
2018-05-09T07:56:07.982Z,24.73
2018-05-09T07:58:09.423Z,24.49
2018-05-09T08:00:11.011Z,24.39
2018-05-09T08:02:12.494Z,24.41
2018-05-09T08:04:14.014Z,24.42
2018-05-09T08:06:15.676Z,24.42
2018-05-09T08:08:17.253Z,24.53
2018-05-09T08:10:18.826Z,24.64
2018-05-09T08:12:20.360Z,24.64
2018-05-09T08:14:21.861Z,24.77
2018-05-09T08:16:23.332Z,24.88
2018-05-09T08:18:24.883Z,24.92
2018-05-09T08:20:26.432Z,25.01
2018-05-09T08:22:27.969Z,25.09
2018-05-09T08:24:29.520Z,25.19
2018-05-09T08:27:11.949Z,25.44
2018-05-09T08:29:13.382Z,25.38
2018-05-09T08:31:14.824Z,25.53
2018-05-09T08:33:16.270Z,25.72
2018-05-09T08:35:17.705Z,25.74
2018-05-09T08:37:19.516Z,25.93
2018-05-09T08:39:20.964Z,26.08
2018-05-09T08:41:22.812Z,26.18
2018-05-09T08:43:25.019Z,26.22
2018-05-09T08:45:26.433Z,26.31
2018-05-09T08:47:27.884Z,26.43
2018-05-09T08:49:29.427Z,26.65
2018-05-09T08:51:31.396Z,26.76
2018-05-09T08:53:33.023Z,26.94
2018-05-09T08:55:34.675Z,27.11
2018-05-09T08:57:36.296Z,27.02
2018-05-09T08:59:37.987Z,27.19
2018-05-09T09:01:39.624Z,27.38
2018-05-09T09:03:41.315Z,27.53
2018-05-09T09:05:43.958Z,27.54
2018-05-09T09:07:45.612Z,27.67
2018-05-09T09:09:47.681Z,27.71
2018-05-09T09:11:50.257Z,27.76
2018-05-09T09:13:52.513Z,27.73
2018-05-09T09:15:54.058Z,27.92
2018-05-09T09:17:55.513Z,27.88
2018-05-09T09:19:57.033Z,27.99
2018-05-09T09:21:58.495Z,28.19
2018-05-09T09:23:59.930Z,28.33
2018-05-09T09:26:01.375Z,28.51
2018-05-09T09:28:02.822Z,28.58
2018-05-09T09:30:04.290Z,28.70
2018-05-09T09:32:05.753Z,28.69
2018-05-09T09:34:07.194Z,28.69
2018-05-09T09:36:08.651Z,28.81
2018-05-09T09:38:10.084Z,28.70
2018-05-09T09:40:11.530Z,28.73
2018-05-09T09:42:12.969Z,28.82
2018-05-09T09:44:14.418Z,29.10
2018-05-09T09:46:15.863Z,29.13
2018-05-09T09:48:17.305Z,29.34
2018-05-09T09:50:18.747Z,29.53
2018-05-09T09:52:20.191Z,29.66
2018-05-09T09:54:21.640Z,29.79
2018-05-09T09:56:23.080Z,29.68
2018-05-09T09:58:24.766Z,29.65
2018-05-09T10:00:26.204Z,29.84
2018-05-09T10:02:27.636Z,29.84
2018-05-09T10:04:29.084Z,29.92
2018-05-09T10:06:30.748Z,30.12
2018-05-09T10:08:32.213Z,30.02
2018-05-09T10:10:33.758Z,30.26
2018-05-09T10:12:35.392Z,30.30
2018-05-09T10:14:36.810Z,30.24
2018-05-09T10:16:38.249Z,30.29
2018-05-09T10:18:39.696Z,30.40
2018-05-09T10:20:41.136Z,30.38
2018-05-09T10:22:42.651Z,30.34
2018-05-09T10:24:44.102Z,30.46
2018-05-09T10:26:46.240Z,30.50
2018-05-09T10:28:47.697Z,30.59
2018-05-09T10:30:49.674Z,30.54
2018-05-09T10:32:51.271Z,30.45
2018-05-09T10:34:52.790Z,30.31
2018-05-09T10:36:54.374Z,30.31
2018-05-09T10:38:55.877Z,30.46
2018-05-09T10:40:57.397Z,30.67
2018-05-09T10:42:58.900Z,30.69
2018-05-09T10:45:00.459Z,30.71
2018-05-09T10:47:01.992Z,30.56
2018-05-09T10:49:44.448Z,30.33
2018-05-09T10:51:45.895Z,30.43
2018-05-09T10:53:47.346Z,30.45
2018-05-09T10:55:48.788Z,30.45
2018-05-09T10:57:50.238Z,30.52
2018-05-09T10:59:51.703Z,30.74
2018-05-09T11:01:53.147Z,30.57
2018-05-09T11:03:54.725Z,30.65
2018-05-09T11:05:56.215Z,30.49
2018-05-09T11:07:57.751Z,30.53
2018-05-09T11:09:59.262Z,30.68
2018-05-09T11:12:00.717Z,30.68
2018-05-09T11:14:02.247Z,30.86
2018-05-09T11:16:03.778Z,30.93
2018-05-09T11:18:05.322Z,30.98
2018-05-09T11:20:06.860Z,30.99
2018-05-09T11:22:09.129Z,31.12
2018-05-09T11:24:10.697Z,31.15
2018-05-09T11:26:12.287Z,31.27
2018-05-09T11:28:13.856Z,31.23
2018-05-09T11:30:15.507Z,31.15
2018-05-09T11:32:17.099Z,31.06
2018-05-09T11:34:18.710Z,30.98
2018-05-09T11:36:20.381Z,31.06
2018-05-09T11:38:21.982Z,31.08
2018-05-09T11:40:23.529Z,31.05
2018-05-09T11:42:25.111Z,31.06
2018-05-09T11:44:26.859Z,30.86
2018-05-09T11:46:28.811Z,30.75
2018-05-09T11:48:30.336Z,30.78
2018-05-09T11:50:31.912Z,30.68
2018-05-09T11:52:33.865Z,30.62
2018-05-09T11:54:35.348Z,30.69
2018-05-09T11:56:37.007Z,30.78
2018-05-09T11:58:38.796Z,30.78
2018-05-09T12:00:40.307Z,30.80
2018-05-09T12:02:41.892Z,30.91
2018-05-09T12:04:43.396Z,30.90
2018-05-09T12:06:44.950Z,30.86
2018-05-09T12:08:46.520Z,30.74
2018-05-09T12:10:48.165Z,30.67
2018-05-09T12:12:49.649Z,30.59
2018-05-09T12:14:51.201Z,30.67
2018-05-09T12:16:52.791Z,30.75
2018-05-09T12:18:54.337Z,30.71
2018-05-09T12:20:55.915Z,30.75
2018-05-09T12:22:57.426Z,30.65
2018-05-09T12:24:59.082Z,30.69
2018-05-09T12:27:00.623Z,30.72
2018-05-09T12:29:43.088Z,30.47
2018-05-09T12:31:44.530Z,30.43
2018-05-09T12:33:45.982Z,30.67
2018-05-09T12:35:47.428Z,30.68
2018-05-09T12:37:48.877Z,30.56
2018-05-09T12:39:50.324Z,30.53
2018-05-09T12:41:51.765Z,30.69
2018-05-09T12:43:53.222Z,30.69
2018-05-09T12:45:54.669Z,30.69
2018-05-09T12:47:56.115Z,30.57
2018-05-09T12:49:57.561Z,30.71
2018-05-09T12:51:59.009Z,30.68
2018-05-09T12:54:00.452Z,30.75
2018-05-09T12:56:02.046Z,30.86
2018-05-09T12:58:03.489Z,30.84
2018-05-09T13:00:04.937Z,30.89
2018-05-09T13:02:06.382Z,30.91
2018-05-09T13:04:07.831Z,30.78
2018-05-09T13:06:09.275Z,30.89
2018-05-09T13:08:10.804Z,30.94
2018-05-09T13:10:12.249Z,31.09
2018-05-09T13:12:13.692Z,30.96
2018-05-09T13:14:15.164Z,30.78
2018-05-09T13:16:16.656Z,30.84
2018-05-09T13:18:18.102Z,30.90
2018-05-09T13:20:19.553Z,30.89
2018-05-09T13:22:21.042Z,30.89
2018-05-09T13:24:22.774Z,30.90
2018-05-09T13:26:24.640Z,30.94
2018-05-09T13:28:26.440Z,31.12
2018-05-09T13:30:27.981Z,30.99
2018-05-09T13:32:29.574Z,30.94
2018-05-09T13:34:31.135Z,30.94
2018-05-09T13:36:32.861Z,30.84
2018-05-09T13:38:34.386Z,30.65
2018-05-09T13:40:36.176Z,30.68
2018-05-09T13:42:38.054Z,30.75
2018-05-09T13:44:39.977Z,30.72
2018-05-09T13:46:41.584Z,30.78
2018-05-09T13:48:43.110Z,30.87
2018-05-09T13:50:44.664Z,30.89
2018-05-09T13:52:46.267Z,30.89
2018-05-09T13:54:47.871Z,30.91
2018-05-09T13:56:49.485Z,30.90
2018-05-09T13:58:51.221Z,30.94
2018-05-09T14:00:52.842Z,30.90
2018-05-09T14:02:54.454Z,30.89
2018-05-09T14:04:55.955Z,30.91
2018-05-09T14:06:57.452Z,31.01
2018-05-09T14:09:39.894Z,31.13
2018-05-09T14:11:41.362Z,31.27
2018-05-09T14:13:42.789Z,31.18
2018-05-09T14:15:44.236Z,30.81
2018-05-09T14:17:45.688Z,30.56
2018-05-09T14:19:47.154Z,30.50
2018-05-09T14:21:48.599Z,30.54
2018-05-09T14:23:50.056Z,30.71
2018-05-09T14:25:51.688Z,30.80
2018-05-09T14:27:53.126Z,30.89
2018-05-09T14:29:54.569Z,30.84
2018-05-09T14:31:56.142Z,30.84
2018-05-09T14:33:57.787Z,30.86
2018-05-09T14:35:59.236Z,30.87
2018-05-09T14:38:00.673Z,30.98
2018-05-09T14:40:02.142Z,30.93
2018-05-09T14:42:03.626Z,30.78
2018-05-09T14:44:05.202Z,30.67
2018-05-09T14:46:06.858Z,30.53
2018-05-09T14:48:08.425Z,30.47
2018-05-09T14:50:50.864Z,30.50
2018-05-09T14:52:55.941Z,30.64
2018-05-09T14:54:57.340Z,30.67
2018-05-09T14:56:59.715Z,30.67
2018-05-09T14:59:01.828Z,30.47
2018-05-09T15:01:03.717Z,30.59
2018-05-09T15:03:06.121Z,30.56
2018-05-09T15:05:07.606Z,30.53
2018-05-09T15:07:09.046Z,30.56
2018-05-09T15:09:10.500Z,30.69
2018-05-09T15:11:11.945Z,30.76
2018-05-09T15:13:13.389Z,30.68
2018-05-09T15:15:14.835Z,30.83
2018-05-09T15:17:16.287Z,30.78
2018-05-09T15:19:17.729Z,30.76
2018-05-09T15:21:19.336Z,30.53
2018-05-09T15:23:20.889Z,30.27
2018-05-09T15:25:22.405Z,30.03
2018-05-09T15:27:23.797Z,30.00
2018-05-09T15:29:25.216Z,29.81
2018-05-09T15:31:26.668Z,29.72
2018-05-09T15:33:28.108Z,29.60
2018-05-09T15:35:29.554Z,29.44
2018-05-09T15:37:31.016Z,29.23
2018-05-09T15:39:32.604Z,29.23
2018-05-09T15:41:34.827Z,29.10
2018-05-09T15:43:37.077Z,29.06
2018-05-09T15:45:38.589Z,29.10
2018-05-09T15:47:40.047Z,28.97
2018-05-09T15:49:41.499Z,28.85
2018-05-09T15:51:42.928Z,28.85
2018-05-09T15:53:44.371Z,28.90
2018-05-09T15:55:45.811Z,29.03
2018-05-09T15:57:47.254Z,29.03
2018-05-09T15:59:48.715Z,28.96
2018-05-09T16:01:50.167Z,29.00
2018-05-09T16:03:52.193Z,29.07
2018-05-09T16:05:53.695Z,29.07
2018-05-09T16:07:55.153Z,28.95
2018-05-09T16:09:57.316Z,29.07
2018-05-09T16:11:59.260Z,29.08
2018-05-09T16:14:01.243Z,29.10
2018-05-09T16:16:02.941Z,29.04
2018-05-09T16:18:04.400Z,29.10
2018-05-09T16:20:06.008Z,29.15
2018-05-09T16:22:08.068Z,29.28
2018-05-09T16:24:09.605Z,29.19
2018-05-09T16:26:11.145Z,29.20
2018-05-09T16:28:12.600Z,29.34
2018-05-09T16:30:14.107Z,29.34
2018-05-09T16:32:15.584Z,29.33
2018-05-09T16:34:17.055Z,29.38
2018-05-09T16:36:18.956Z,29.49
2018-05-09T16:39:01.984Z,29.45
2018-05-09T16:41:03.500Z,29.45
2018-05-09T16:43:05.429Z,29.44
2018-05-09T16:45:07.341Z,29.34
2018-05-09T16:47:08.916Z,29.44
2018-05-09T16:49:10.725Z,29.37
2018-05-09T16:51:12.590Z,29.31
2018-05-09T16:53:14.331Z,29.20
2018-05-09T16:55:15.966Z,29.18
2018-05-09T16:57:17.422Z,29.23
2018-05-09T16:59:18.951Z,29.20
2018-05-09T17:01:20.544Z,29.13
2018-05-09T17:03:22.050Z,29.20
2018-05-09T17:05:23.715Z,29.11
2018-05-09T17:07:25.429Z,29.08
2018-05-09T17:09:27.014Z,29.07
2018-05-09T17:11:28.491Z,29.00
2018-05-09T17:13:30.423Z,29.03
2018-05-09T17:15:31.984Z,28.90
2018-05-09T17:17:33.858Z,28.91
2018-05-09T17:19:35.473Z,28.82
2018-05-09T17:21:37.592Z,28.82
2018-05-09T17:23:39.422Z,28.73
2018-05-09T17:25:40.969Z,28.63
2018-05-09T17:27:42.826Z,28.63
2018-05-09T17:29:44.551Z,28.62
2018-05-09T17:31:45.996Z,28.59
2018-05-09T17:33:47.775Z,28.62
2018-05-09T17:35:49.527Z,28.62
2018-05-09T17:37:51.431Z,28.59
2018-05-09T17:39:53.039Z,28.58
2018-05-09T17:41:54.950Z,28.54
2018-05-09T17:43:56.742Z,28.46
2018-05-09T17:45:58.516Z,28.43
2018-05-09T17:48:00.426Z,28.33
2018-05-09T17:50:04.281Z,28.28
2018-05-09T17:52:06.212Z,28.33
2018-05-09T17:54:08.068Z,28.32
2018-05-09T17:56:09.648Z,28.26
2018-05-09T17:58:11.506Z,28.13
2018-05-09T18:00:13.314Z,28.14
2018-05-09T18:02:15.059Z,28.17
2018-05-09T18:04:16.866Z,28.25
2018-05-09T18:06:18.477Z,28.10
2018-05-09T18:08:20.320Z,28.13
2018-05-09T18:10:22.201Z,28.06
2018-05-09T18:12:23.989Z,27.96
2018-05-09T18:14:25.785Z,28.03
2018-05-09T18:16:27.570Z,27.99
2018-05-09T18:18:29.391Z,27.92
2018-05-09T18:20:31.193Z,27.98
2018-05-09T18:22:33.014Z,27.80
2018-05-09T18:24:34.677Z,27.80
2018-05-09T18:26:36.564Z,27.70
2018-05-09T18:28:38.160Z,27.73
2018-05-09T18:30:40.111Z,27.67
2018-05-09T18:32:41.742Z,27.67
2018-05-09T18:34:43.576Z,27.69
2018-05-09T18:36:45.453Z,27.66
2018-05-09T18:38:47.065Z,27.61
2018-05-09T18:40:48.852Z,27.47
2018-05-09T18:42:50.825Z,27.50
2018-05-09T18:44:52.573Z,27.54
2018-05-09T18:46:54.183Z,27.48
2018-05-09T18:48:55.941Z,27.42
2018-05-09T18:50:57.556Z,27.41
2018-05-09T18:52:59.563Z,27.31
2018-05-09T18:55:01.335Z,27.28
2018-05-09T18:57:03.204Z,27.14
2018-05-09T18:59:04.850Z,27.02
2018-05-09T19:01:06.469Z,27.02
2018-05-09T19:03:08.378Z,27.09
2018-05-09T19:05:09.959Z,26.99
2018-05-09T19:07:11.821Z,26.89
2018-05-09T19:09:13.602Z,26.94
2018-05-09T19:11:15.507Z,26.92
2018-05-09T19:13:17.290Z,26.89
2018-05-09T19:15:19.136Z,26.96
2018-05-09T19:17:20.911Z,26.89
2018-05-09T19:19:22.534Z,26.83
2018-05-09T19:21:24.470Z,26.84
2018-05-09T19:23:26.335Z,26.87
2018-05-09T19:25:28.101Z,26.80
2018-05-09T19:27:29.663Z,26.76
2018-05-09T19:29:31.484Z,26.76
2018-05-09T19:31:33.298Z,26.74
2018-05-09T19:33:35.334Z,26.73
2018-05-09T19:35:37.188Z,26.83
2018-05-09T19:37:39.074Z,26.74
2018-05-09T19:39:40.915Z,26.69
2018-05-09T19:41:42.713Z,26.68
2018-05-09T19:43:44.556Z,26.64
2018-05-09T19:45:46.185Z,26.61
2018-05-09T19:47:48.968Z,26.59
2018-05-09T19:49:50.891Z,26.52
2018-05-09T19:51:52.473Z,26.57
2018-05-09T19:53:54.237Z,26.50
2018-05-09T19:55:56.175Z,26.52
2018-05-09T19:57:58.005Z,26.49
2018-05-09T19:59:59.828Z,26.40
2018-05-09T20:02:01.795Z,26.39
2018-05-09T20:04:03.379Z,26.35
2018-05-09T20:06:05.162Z,26.32
2018-05-09T20:08:06.839Z,26.22
2018-05-09T20:10:08.477Z,26.29
2018-05-09T20:12:09.973Z,26.27
2018-05-09T20:14:11.636Z,26.15
2018-05-09T20:16:13.545Z,26.17
2018-05-09T20:18:15.135Z,26.06
2018-05-09T20:20:16.723Z,26.09
2018-05-09T20:22:19.381Z,25.99
2018-05-09T20:24:21.439Z,25.98
2018-05-09T20:26:23.336Z,25.99
2018-05-09T20:28:25.113Z,25.98
2018-05-09T20:30:26.904Z,25.91
2018-05-09T20:32:28.631Z,25.93
2018-05-09T20:34:30.411Z,25.82
2018-05-09T20:36:32.149Z,25.83
2018-05-09T20:38:33.954Z,25.74
2018-05-09T20:40:35.705Z,25.71
2018-05-09T20:42:37.692Z,25.67
2018-05-09T20:44:39.571Z,25.69
2018-05-09T20:46:41.109Z,25.68
2018-05-09T20:48:42.784Z,25.72
2018-05-09T20:50:44.384Z,25.65
2018-05-09T20:52:46.263Z,25.59
2018-05-09T20:54:48.056Z,25.53
2018-05-09T20:56:49.683Z,25.54
2018-05-09T20:58:51.813Z,25.44
2018-05-09T21:00:53.660Z,25.53
2018-05-09T21:02:55.693Z,25.47
2018-05-09T21:04:57.286Z,25.43
2018-05-09T21:06:59.271Z,25.38
2018-05-09T21:09:01.225Z,25.32
2018-05-09T21:11:02.787Z,25.32
2018-05-09T21:13:04.575Z,25.34
2018-05-09T21:15:06.607Z,25.31
2018-05-09T21:17:08.314Z,25.30
2018-05-09T21:19:10.100Z,25.17
2018-05-09T21:21:12.041Z,25.28
2018-05-09T21:23:13.891Z,25.20
2018-05-09T21:25:15.407Z,25.20
2018-05-09T21:27:17.074Z,25.13
2018-05-09T21:29:18.755Z,25.15
2018-05-09T21:31:20.233Z,25.07
2018-05-09T21:33:21.801Z,25.09
2018-05-09T21:35:23.629Z,25.06
2018-05-09T21:37:25.139Z,25.00
2018-05-09T21:39:26.848Z,25.02
2018-05-09T21:41:28.727Z,24.98
2018-05-09T21:43:30.589Z,24.97
2018-05-09T21:45:32.446Z,24.97
2018-05-09T21:47:34.198Z,24.97
2018-05-09T21:49:35.972Z,24.90
2018-05-09T21:51:37.845Z,24.87
2018-05-09T21:53:39.367Z,24.85
2018-05-09T21:55:41.009Z,24.80
2018-05-09T21:57:42.799Z,24.87
2018-05-09T21:59:44.557Z,24.80
2018-05-09T22:01:46.227Z,24.79
2018-05-09T22:03:48.014Z,24.71
2018-05-09T22:05:49.590Z,24.76
2018-05-09T22:07:51.185Z,24.76
2018-05-09T22:09:52.766Z,24.76
2018-05-09T22:11:54.622Z,24.63
2018-05-09T22:13:56.161Z,24.64
2018-05-09T22:15:58.157Z,24.67
2018-05-09T22:17:59.889Z,24.53
2018-05-09T22:20:01.793Z,24.57
2018-05-09T22:22:03.683Z,24.60
2018-05-09T22:24:05.581Z,24.50
2018-05-09T22:26:07.448Z,24.47
2018-05-09T22:28:09.056Z,24.41
2018-05-09T22:30:11.020Z,24.35
2018-05-09T22:32:12.748Z,24.34
2018-05-09T22:34:14.399Z,24.34
2018-05-09T22:36:18.090Z,24.31
2018-05-09T22:39:01.175Z,24.29
2018-05-09T22:41:02.601Z,24.20
2018-05-09T22:43:04.041Z,24.17
2018-05-09T22:45:05.761Z,24.19
2018-05-09T22:47:07.412Z,24.13
2018-05-09T22:49:09.077Z,24.02
2018-05-09T22:51:10.657Z,24.07
2018-05-09T22:53:12.244Z,24.12
2018-05-09T22:55:14.088Z,24.00
2018-05-09T22:57:15.759Z,23.90
2018-05-09T22:59:17.506Z,23.83
2018-05-09T23:01:18.982Z,23.92
2018-05-09T23:03:20.853Z,23.85
2018-05-09T23:05:22.664Z,23.76
2018-05-09T23:07:24.473Z,23.68
2018-05-09T23:09:25.929Z,23.67
2018-05-09T23:11:27.472Z,23.70
2018-05-09T23:13:29.259Z,23.64
2018-05-09T23:15:31.294Z,23.64
2018-05-09T23:17:32.913Z,23.68
2018-05-09T23:19:34.452Z,23.55
2018-05-09T23:21:36.381Z,23.64
2018-05-09T23:23:37.927Z,23.62
2018-05-09T23:25:39.408Z,23.50
2018-05-09T23:27:41.352Z,23.47
2018-05-09T23:29:42.885Z,23.32
2018-05-09T23:31:44.748Z,23.15
2018-05-09T23:33:46.687Z,22.82
2018-05-09T23:35:48.541Z,22.83
2018-05-09T23:37:50.474Z,22.89
2018-05-09T23:39:52.396Z,22.97
2018-05-09T23:41:53.932Z,22.94
2018-05-09T23:43:55.915Z,22.90
2018-05-09T23:45:57.549Z,22.80
2018-05-09T23:47:59.478Z,22.82
2018-05-09T23:50:01.580Z,22.72
2018-05-09T23:52:03.521Z,22.71
2018-05-09T23:54:05.542Z,22.64
2018-05-09T23:56:07.059Z,22.65
2018-05-09T23:58:08.924Z,22.53
